sensor_id;sensor_type;location;lat;lon;timestamp;temperature;humidity
20162;DHT22;51382;53.180;15.414;2023-09-18T00:14:04;15.80;99.90
20162;DHT22;51382;53.180;15.414;2023-09-18T00:29:15;15.60;99.90
20162;DHT22;51382;53.180;15.414;2023-09-18T00:44:21;15.60;99.90
20162;DHT22;51382;53.180;15.414;2023-09-18T00:59:34;15.50;99.90
20162;DHT22;51382;53.180;15.414;2023-09-18T01:14:42;15.40;99.90
20162;DHT22;51382;53.180;15.414;2023-09-18T01:29:59;15.40;99.90
20162;DHT22;51382;53.180;15.414;2023-09-18T01:45:10;15.20;99.90
20162;DHT22;51382;53.180;15.414;2023-09-18T02:00:22;15.20;99.90
20162;DHT22;51382;53.180;15.414;2023-09-18T02:15:35;15.20;99.90
20162;DHT22;51382;53.180;15.414;2023-09-18T02:30:48;15.20;99.90
20162;DHT22;51382;53.180;15.414;2023-09-18T02:45:59;15.00;99.90
20162;DHT22;51382;53.180;15.414;2023-09-18T03:01:10;15.00;99.90
20162;DHT22;51382;53.180;15.414;2023-09-18T03:16:22;14.80;99.90
20162;DHT22;51382;53.180;15.414;2023-09-18T03:31:39;14.70;99.90
20162;DHT22;51382;53.180;15.414;2023-09-18T03:46:50;14.70;99.90
20162;DHT22;51382;53.180;15.414;2023-09-18T04:02:02;14.60;99.90
20162;DHT22;51382;53.180;15.414;2023-09-18T04:17:14;14.40;99.90
20162;DHT22;51382;53.180;15.414;2023-09-18T04:32:25;14.50;99.90
20162;DHT22;51382;53.180;15.414;2023-09-18T04:47:34;14.50;99.90
20162;DHT22;51382;53.180;15.414;2023-09-18T05:02:45;14.70;99.90
20162;DHT22;51382;53.180;15.414;2023-09-18T05:17:57;14.70;99.90
20162;DHT22;51382;53.180;15.414;2023-09-18T05:33:12;15.00;99.90
20162;DHT22;51382;53.180;15.414;2023-09-18T05:48:24;15.50;99.90
20162;DHT22;51382;53.180;15.414;2023-09-18T06:03:30;16.30;99.90
20162;DHT22;51382;53.180;15.414;2023-09-18T06:34:39;24.60;99.90
20162;DHT22;51382;53.180;15.414;2023-09-18T06:49:52;26.50;99.90
20162;DHT22;51382;53.180;15.414;2023-09-18T07:05:04;27.00;99.10
20162;DHT22;51382;53.180;15.414;2023-09-18T07:20:15;26.70;98.60
20162;DHT22;51382;53.180;15.414;2023-09-18T07:35:27;27.00;95.40
20162;DHT22;51382;53.180;15.414;2023-09-18T07:50:39;26.20;96.50
20162;DHT22;51382;53.180;15.414;2023-09-18T08:05:54;22.70;99.90
20162;DHT22;51382;53.180;15.414;2023-09-18T08:21:05;23.20;99.90
20162;DHT22;51382;53.180;15.414;2023-09-18T08:36:17;23.60;99.90
20162;DHT22;51382;53.180;15.414;2023-09-18T08:51:28;23.30;99.90
20162;DHT22;51382;53.180;15.414;2023-09-18T09:06:40;24.30;99.90
20162;DHT22;51382;53.180;15.414;2023-09-18T09:21:52;24.30;99.30
20162;DHT22;51382;53.180;15.414;2023-09-18T09:37:03;25.00;98.70
20162;DHT22;51382;53.180;15.414;2023-09-18T09:52:18;26.60;96.60
20162;DHT22;51382;53.180;15.414;2023-09-18T10:07:30;27.60;93.50
20162;DHT22;51382;53.180;15.414;2023-09-18T10:22:42;28.80;92.90
20162;DHT22;51382;53.180;15.414;2023-09-18T10:37:53;27.20;93.90
20162;DHT22;51382;53.180;15.414;2023-09-18T10:53:00;26.30;94.60
20162;DHT22;51382;53.180;15.414;2023-09-18T11:08:28;26.50;93.70
20162;DHT22;51382;53.180;15.414;2023-09-18T11:23:42;26.50;93.10
20162;DHT22;51382;53.180;15.414;2023-09-18T11:38:54;26.40;93.80
20162;DHT22;51382;53.180;15.414;2023-09-18T11:54:06;26.60;91.90
20162;DHT22;51382;53.180;15.414;2023-09-18T12:09:19;26.70;91.30
20162;DHT22;51382;53.180;15.414;2023-09-18T12:24:30;26.40;92.20
20162;DHT22;51382;53.180;15.414;2023-09-18T12:39:43;26.40;92.70
20162;DHT22;51382;53.180;15.414;2023-09-18T12:54:54;27.40;90.80
20162;DHT22;51382;53.180;15.414;2023-09-18T13:10:08;27.20;90.00
20162;DHT22;51382;53.180;15.414;2023-09-18T13:25:24;27.30;88.00
20162;DHT22;51382;53.180;15.414;2023-09-18T13:40:37;26.70;89.80
20162;DHT22;51382;53.180;15.414;2023-09-18T13:55:55;26.50;91.00
20162;DHT22;51382;53.180;15.414;2023-09-18T14:11:06;26.70;90.40
20162;DHT22;51382;53.180;15.414;2023-09-18T14:26:18;26.80;88.50
20162;DHT22;51382;53.180;15.414;2023-09-18T14:41:27;26.50;88.80
20162;DHT22;51382;53.180;15.414;2023-09-18T14:56:34;26.20;90.40
20162;DHT22;51382;53.180;15.414;2023-09-18T15:11:40;25.80;91.40
20162;DHT22;51382;53.180;15.414;2023-09-18T15:26:47;25.70;92.20
20162;DHT22;51382;53.180;15.414;2023-09-18T15:41:58;25.20;94.50
20162;DHT22;51382;53.180;15.414;2023-09-18T15:57:09;24.60;96.70
20162;DHT22;51382;53.180;15.414;2023-09-18T16:12:18;24.70;95.90
20162;DHT22;51382;53.180;15.414;2023-09-18T16:27:25;24.50;96.10
20162;DHT22;51382;53.180;15.414;2023-09-18T16:42:37;24.30;96.60
20162;DHT22;51382;53.180;15.414;2023-09-18T16:57:51;23.30;99.90
20162;DHT22;51382;53.180;15.414;2023-09-18T17:12:58;23.00;99.90
20162;DHT22;51382;53.180;15.414;2023-09-18T17:28:06;22.50;99.90
20162;DHT22;51382;53.180;15.414;2023-09-18T17:43:19;22.30;99.90
20162;DHT22;51382;53.180;15.414;2023-09-18T17:58:25;22.00;99.90
20162;DHT22;51382;53.180;15.414;2023-09-18T18:13:32;21.90;99.90
20162;DHT22;51382;53.180;15.414;2023-09-18T18:28:43;21.10;99.90
20162;DHT22;51382;53.180;15.414;2023-09-18T18:43:55;21.00;99.90
20162;DHT22;51382;53.180;15.414;2023-09-18T18:59:06;21.10;99.90
20162;DHT22;51382;53.180;15.414;2023-09-18T19:14:13;21.10;99.90
20162;DHT22;51382;53.180;15.414;2023-09-18T19:29:19;21.10;99.90
20162;DHT22;51382;53.180;15.414;2023-09-18T19:44:32;20.80;99.90
20162;DHT22;51382;53.180;15.414;2023-09-18T19:59:44;20.70;99.90
20162;DHT22;51382;53.180;15.414;2023-09-18T20:14:57;20.50;99.90
20162;DHT22;51382;53.180;15.414;2023-09-18T20:30:12;20.60;99.90
20162;DHT22;51382;53.180;15.414;2023-09-18T20:45:24;20.40;99.90
20162;DHT22;51382;53.180;15.414;2023-09-18T21:00:35;20.30;99.90
20162;DHT22;51382;53.180;15.414;2023-09-18T21:15:47;20.30;99.90
20162;DHT22;51382;53.180;15.414;2023-09-18T21:31:07;19.90;99.90
20162;DHT22;51382;53.180;15.414;2023-09-18T21:46:21;19.50;99.90
20162;DHT22;51382;53.180;15.414;2023-09-18T22:01:32;19.10;99.90
20162;DHT22;51382;53.180;15.414;2023-09-18T22:16:44;18.90;99.90
20162;DHT22;51382;53.180;15.414;2023-09-18T22:31:55;18.60;99.90
20162;DHT22;51382;53.180;15.414;2023-09-18T23:02:53;18.40;99.90
20162;DHT22;51382;53.180;15.414;2023-09-18T23:18:05;18.40;99.90
20162;DHT22;51382;53.180;15.414;2023-09-18T23:33:17;18.30;99.90
20162;DHT22;51382;53.180;15.414;2023-09-18T23:48:29;18.30;99.90
